createdAt,value
2018-12-17T00:00:04.253Z,92.94
2018-12-17T00:01:04.236Z,92.31
2018-12-17T00:02:04.252Z,92.52
2018-12-17T00:03:04.249Z,92.84
2018-12-17T00:04:04.206Z,92.10
2018-12-17T00:05:04.202Z,92.63
2018-12-17T00:06:04.178Z,92.84
2018-12-17T00:07:04.196Z,92.63
2018-12-17T00:08:04.210Z,91.99
2018-12-17T00:09:04.158Z,92.73
2018-12-17T00:10:04.147Z,92.90
2018-12-17T00:11:04.149Z,92.52
2018-12-17T00:12:04.111Z,92.94
2018-12-17T00:13:04.114Z,92.94
2018-12-17T00:14:04.130Z,92.31
2018-12-17T00:15:04.111Z,91.68
2018-12-17T00:16:04.082Z,92.21
2018-12-17T00:17:05.215Z,92.57
2018-12-17T00:18:04.059Z,92.10
2018-12-17T00:19:04.055Z,92.21
2018-12-17T00:20:04.085Z,92.63
2018-12-17T00:21:04.041Z,92.67
2018-12-17T00:22:04.023Z,92.31
2018-12-17T00:23:03.995Z,92.84
2018-12-17T00:24:04.013Z,92.84
2018-12-17T00:25:03.980Z,93.37
2018-12-17T00:26:04.018Z,93.47
2018-12-17T00:27:03.969Z,92.73
2018-12-17T00:28:08.191Z,93.05
2018-12-17T00:29:03.935Z,93.15
2018-12-17T00:30:03.924Z,93.32
2018-12-17T00:31:03.979Z,92.48
2018-12-17T00:32:03.958Z,92.48
2018-12-17T00:33:03.937Z,92.38
2018-12-17T00:34:03.884Z,91.74
2018-12-17T00:35:03.884Z,92.16
2018-12-17T00:36:03.867Z,92.38
2018-12-17T00:37:03.861Z,92.52
2018-12-17T00:38:03.888Z,91.99
2018-12-17T00:39:03.843Z,92.48
2018-12-17T00:40:03.816Z,92.80
2018-12-17T00:41:03.818Z,92.31
2018-12-17T00:42:03.826Z,92.31
2018-12-17T00:43:03.826Z,91.99
2018-12-17T00:44:03.771Z,91.99
2018-12-17T00:45:03.841Z,92.31
2018-12-17T00:46:03.753Z,92.16
2018-12-17T00:47:03.761Z,91.74
2018-12-17T00:48:03.729Z,91.96
2018-12-17T00:49:03.722Z,92.27
2018-12-17T00:50:03.747Z,91.85
2018-12-17T00:51:03.773Z,92.31
2018-12-17T00:52:03.687Z,91.78
2018-12-17T00:53:03.691Z,92.10
2018-12-17T00:54:03.673Z,91.99
2018-12-17T00:55:03.673Z,92.10
2018-12-17T00:56:03.662Z,91.15
2018-12-17T00:57:03.691Z,90.94
2018-12-17T00:58:03.631Z,91.15
2018-12-17T00:59:03.681Z,91.15
2018-12-17T01:00:03.629Z,90.83
2018-12-17T01:01:03.604Z,91.26
2018-12-17T01:02:03.649Z,91.15
2018-12-17T01:03:03.626Z,91.15
2018-12-17T01:04:03.562Z,90.52
2018-12-17T01:05:03.557Z,90.31
2018-12-17T01:06:03.545Z,89.68
2018-12-17T01:07:03.546Z,89.57
2018-12-17T01:08:03.538Z,88.69
2018-12-17T01:09:03.556Z,88.83
2018-12-17T01:10:03.513Z,89.04
2018-12-17T01:11:03.568Z,89.15
2018-12-17T01:12:03.486Z,89.68
2018-12-17T01:13:03.476Z,89.68
2018-12-17T01:14:03.507Z,88.73
2018-12-17T01:15:03.476Z,88.69
2018-12-17T01:16:03.448Z,88.31
2018-12-17T01:17:03.441Z,88.94
2018-12-17T01:18:03.413Z,88.83
2018-12-17T01:19:03.414Z,89.15
2018-12-17T01:20:03.507Z,89.29
2018-12-17T01:21:03.406Z,89.72
2018-12-17T01:22:03.398Z,90.03
2018-12-17T01:23:03.366Z,90.35
2018-12-17T01:24:03.350Z,90.45
2018-12-17T01:25:03.385Z,90.45
2018-12-17T01:26:03.340Z,90.67
2018-12-17T01:27:03.343Z,89.93
2018-12-17T01:28:03.369Z,90.67
2018-12-17T01:29:03.310Z,90.77
2018-12-17T01:30:03.304Z,90.56
2018-12-17T01:31:03.383Z,90.67
2018-12-17T01:32:03.293Z,89.65
2018-12-17T01:33:03.255Z,90.39
2018-12-17T01:34:03.245Z,89.65
2018-12-17T01:35:03.259Z,89.23
2018-12-17T01:36:03.226Z,90.39
2018-12-17T01:37:03.270Z,90.50
2018-12-17T01:38:03.212Z,90.50
2018-12-17T01:39:03.192Z,90.28
2018-12-17T01:40:03.236Z,90.18
2018-12-17T01:41:03.193Z,90.08
2018-12-17T01:42:03.163Z,90.81
2018-12-17T01:43:03.218Z,90.92
2018-12-17T01:44:03.150Z,91.24
2018-12-17T01:45:03.129Z,90.67
2018-12-17T01:46:03.164Z,90.60
2018-12-17T01:47:03.117Z,91.19
2018-12-17T01:48:03.128Z,91.34
2018-12-17T01:49:03.098Z,91.13
2018-12-17T01:50:03.112Z,91.24
2018-12-17T01:51:03.098Z,91.24
2018-12-17T01:52:03.050Z,91.44
2018-12-17T01:53:03.089Z,90.92
2018-12-17T01:54:03.048Z,90.70
2018-12-17T01:55:03.025Z,90.81
2018-12-17T01:56:03.086Z,90.81
2018-12-17T01:57:03.014Z,90.77
2018-12-17T01:58:03.050Z,90.77
2018-12-17T01:59:02.980Z,90.45
2018-12-17T02:00:03.007Z,90.45
2018-12-17T02:01:02.987Z,90.35
2018-12-17T02:02:03.009Z,90.35
2018-12-17T02:03:02.938Z,90.45
2018-12-17T02:04:02.939Z,90.70
2018-12-17T02:05:02.919Z,91.09
2018-12-17T02:06:02.972Z,90.77
2018-12-17T02:07:02.896Z,90.67
2018-12-17T02:08:02.948Z,90.56
2018-12-17T02:09:02.951Z,90.67
2018-12-17T02:10:02.874Z,90.98
2018-12-17T02:11:02.853Z,91.09
2018-12-17T02:12:02.863Z,91.24
2018-12-17T02:13:02.836Z,91.30
2018-12-17T02:14:02.864Z,91.41
2018-12-17T02:15:02.821Z,91.09
2018-12-17T02:16:02.821Z,91.09
2018-12-17T02:17:02.826Z,91.41
2018-12-17T02:18:02.791Z,90.88
2018-12-17T02:19:02.776Z,91.19
2018-12-17T02:20:02.810Z,91.19
2018-12-17T02:21:02.745Z,91.19
2018-12-17T02:22:02.749Z,91.30
2018-12-17T02:23:02.734Z,90.98
2018-12-17T02:24:02.743Z,90.88
2018-12-17T02:25:02.715Z,91.41
2018-12-17T02:26:02.751Z,90.98
2018-12-17T02:27:02.737Z,91.09
2018-12-17T02:28:02.706Z,91.19
2018-12-17T02:29:02.680Z,91.83
2018-12-17T02:30:02.703Z,91.68
2018-12-17T02:31:02.655Z,91.72
2018-12-17T02:32:02.702Z,91.72
2018-12-17T02:33:02.624Z,91.19
2018-12-17T02:34:02.617Z,91.51
2018-12-17T02:35:02.601Z,90.83
2018-12-17T02:36:02.591Z,90.67
2018-12-17T02:37:02.600Z,91.30
2018-12-17T02:38:02.629Z,91.30
2018-12-17T02:39:02.558Z,91.19
2018-12-17T02:40:02.556Z,90.98
2018-12-17T02:41:02.543Z,90.88
2018-12-17T02:42:02.541Z,91.30
2018-12-17T02:43:02.549Z,91.19
2018-12-17T02:44:02.578Z,91.30
2018-12-17T02:45:02.535Z,91.41
2018-12-17T02:46:02.505Z,92.14
2018-12-17T02:47:02.483Z,91.41
2018-12-17T02:48:02.481Z,91.30
2018-12-17T02:49:02.470Z,91.19
2018-12-17T02:50:02.482Z,90.77
2018-12-17T02:51:02.438Z,91.19
2018-12-17T02:52:02.430Z,91.19
2018-12-17T02:53:02.438Z,90.67
2018-12-17T02:54:02.395Z,91.26
2018-12-17T02:55:02.524Z,91.09
2018-12-17T02:56:02.449Z,91.30
2018-12-17T02:57:02.379Z,91.09
2018-12-17T02:58:02.358Z,91.19
2018-12-17T02:59:02.345Z,90.77
2018-12-17T03:00:02.362Z,91.61
2018-12-17T03:01:02.379Z,90.88
2018-12-17T03:02:02.336Z,91.30
2018-12-17T03:03:02.300Z,91.09
2018-12-17T03:04:02.289Z,91.26
2018-12-17T03:05:02.306Z,90.73
2018-12-17T03:06:02.275Z,91.05
2018-12-17T03:07:02.295Z,91.36
2018-12-17T03:08:02.266Z,90.83
2018-12-17T03:09:02.246Z,90.83
2018-12-17T03:10:02.245Z,90.94
2018-12-17T03:11:02.262Z,91.05
2018-12-17T03:12:02.221Z,91.15
2018-12-17T03:13:02.206Z,90.62
2018-12-17T03:14:02.216Z,90.94
2018-12-17T03:15:02.210Z,90.62
2018-12-17T03:16:02.178Z,90.83
2018-12-17T03:17:02.227Z,90.62
2018-12-17T03:18:02.171Z,89.57
2018-12-17T03:19:02.158Z,89.89
2018-12-17T03:20:02.173Z,90.73
2018-12-17T03:21:02.113Z,90.48
2018-12-17T03:22:02.114Z,90.48
2018-12-17T03:23:02.151Z,91.11
2018-12-17T03:24:02.095Z,91.00
2018-12-17T03:25:02.095Z,91.11
2018-12-17T03:26:02.070Z,91.00
2018-12-17T03:27:02.080Z,90.80
2018-12-17T03:28:02.056Z,91.00
2018-12-17T03:29:02.129Z,92.06
2018-12-17T03:30:02.035Z,91.96
2018-12-17T03:31:02.018Z,91.96
2018-12-17T03:32:02.015Z,91.64
2018-12-17T03:33:02.009Z,91.64
2018-12-17T03:34:01.978Z,91.49
2018-12-17T03:35:02.018Z,91.60
2018-12-17T03:36:01.970Z,91.49
2018-12-17T03:37:01.997Z,91.60
2018-12-17T03:38:01.941Z,91.28
2018-12-17T03:39:01.944Z,91.81
2018-12-17T03:40:01.948Z,91.49
2018-12-17T03:41:01.903Z,90.92
2018-12-17T03:42:01.943Z,90.97
2018-12-17T03:43:01.887Z,90.92
2018-12-17T03:44:01.885Z,90.97
2018-12-17T03:45:01.872Z,90.97
2018-12-17T03:46:01.848Z,91.13
2018-12-17T03:47:01.837Z,90.55
2018-12-17T03:48:01.869Z,90.61
2018-12-17T03:49:01.826Z,90.50
2018-12-17T03:50:01.816Z,90.19
2018-12-17T03:51:01.803Z,90.50
2018-12-17T03:52:01.829Z,90.50
2018-12-17T03:53:01.781Z,90.40
2018-12-17T03:54:01.787Z,90.71
2018-12-17T03:55:01.997Z,90.82
2018-12-17T03:56:01.752Z,90.29
2018-12-17T03:57:31.052Z,90.33
2018-12-17T03:58:02.727Z,90.29
2018-12-17T03:59:01.710Z,91.13
2018-12-17T04:00:01.703Z,91.24
2018-12-17T04:01:01.702Z,91.13
2018-12-17T04:02:01.728Z,91.03
2018-12-17T04:03:01.670Z,90.40
2018-12-17T04:04:01.655Z,90.50
2018-12-17T04:05:01.663Z,90.61
2018-12-17T04:06:01.639Z,90.82
2018-12-17T04:07:01.713Z,90.40
2018-12-17T04:08:01.637Z,90.71
2018-12-17T04:09:01.616Z,90.40
2018-12-17T04:10:01.610Z,90.08
2018-12-17T04:11:01.591Z,89.14
2018-12-17T04:12:01.583Z,89.62
2018-12-17T04:13:01.617Z,89.34
2018-12-17T04:14:01.560Z,89.34
2018-12-17T04:15:01.546Z,89.66
2018-12-17T04:16:01.541Z,89.87
2018-12-17T04:17:01.529Z,89.34
2018-12-17T04:18:01.526Z,89.45
2018-12-17T04:19:01.561Z,89.34
2018-12-17T04:20:01.488Z,89.34
2018-12-17T04:21:01.505Z,89.56
2018-12-17T04:22:01.474Z,88.92
2018-12-17T04:23:01.477Z,88.29
2018-12-17T04:24:01.451Z,88.29
2018-12-17T04:25:01.509Z,88.71
2018-12-17T04:26:01.429Z,88.50
2018-12-17T04:27:01.429Z,88.50
2018-12-17T04:28:01.416Z,88.50
2018-12-17T04:29:06.773Z,89.24
2018-12-17T04:30:02.438Z,88.92
2018-12-17T04:31:01.371Z,89.17
2018-12-17T04:32:01.421Z,88.92
2018-12-17T04:33:01.373Z,89.14
2018-12-17T04:34:01.353Z,89.34
2018-12-17T04:35:01.344Z,89.17
2018-12-17T04:36:01.317Z,88.75
2018-12-17T04:37:01.337Z,87.87
2018-12-17T04:38:01.362Z,87.07
2018-12-17T04:39:01.323Z,87.38
2018-12-17T04:40:01.297Z,87.81
2018-12-17T04:41:01.274Z,87.85
2018-12-17T04:42:01.270Z,88.06
2018-12-17T04:43:04.679Z,87.63
2018-12-17T04:44:01.230Z,87.74
2018-12-17T04:45:01.261Z,88.06
2018-12-17T04:46:01.212Z,88.06
2018-12-17T04:47:01.190Z,88.37
2018-12-17T04:48:01.201Z,89.64
2018-12-17T04:49:01.191Z,89.39
2018-12-17T04:50:01.213Z,88.79
2018-12-17T04:51:01.166Z,88.65
2018-12-17T04:52:01.147Z,88.86
2018-12-17T04:53:01.147Z,88.96
2018-12-17T04:54:01.141Z,88.75
2018-12-17T04:55:01.125Z,88.75
2018-12-17T04:56:01.160Z,89.28
2018-12-17T04:57:01.093Z,89.17
2018-12-17T04:58:01.085Z,89.17
2018-12-17T04:59:01.099Z,89.32
2018-12-17T05:00:01.112Z,89.42
2018-12-17T05:01:01.058Z,89.00
2018-12-17T05:02:01.104Z,87.21
2018-12-17T05:03:01.069Z,86.94
2018-12-17T05:04:01.036Z,86.83
2018-12-17T05:05:01.004Z,87.57
2018-12-17T05:06:01.095Z,88.45
2018-12-17T05:07:01.046Z,88.62
2018-12-17T05:08:00.998Z,88.83
2018-12-17T05:09:00.964Z,89.47
2018-12-17T05:10:00.951Z,89.78
2018-12-17T05:11:00.942Z,90.20
2018-12-17T05:12:00.991Z,90.31
2018-12-17T05:13:00.979Z,90.31
2018-12-17T05:14:00.915Z,89.47
2018-12-17T05:15:00.949Z,88.79
2018-12-17T05:16:00.905Z,88.58
2018-12-17T05:17:00.883Z,89.00
2018-12-17T05:18:00.891Z,89.36
2018-12-17T05:19:00.870Z,89.36
2018-12-17T05:20:00.850Z,88.73
2018-12-17T05:21:00.902Z,88.79
2018-12-17T05:22:00.855Z,88.37
2018-12-17T05:23:00.822Z,88.48
2018-12-17T05:24:00.834Z,88.90
2018-12-17T05:25:00.816Z,88.62
2018-12-17T05:26:00.832Z,88.58
2018-12-17T05:27:00.797Z,89.53
2018-12-17T05:28:00.763Z,88.90
2018-12-17T05:29:00.757Z,89.11
2018-12-17T05:30:01.344Z,89.22
2018-12-17T05:31:00.744Z,89.32
2018-12-17T05:32:00.761Z,89.53
2018-12-17T05:33:00.756Z,89.11
2018-12-17T05:34:00.701Z,88.54
2018-12-17T05:35:00.700Z,89.17
2018-12-17T05:36:00.736Z,89.39
2018-12-17T05:37:00.686Z,89.07
2018-12-17T05:38:00.666Z,89.17
2018-12-17T05:39:00.659Z,89.17
2018-12-17T05:40:00.635Z,89.17
2018-12-17T05:41:00.625Z,89.07
2018-12-17T05:42:00.693Z,87.91
2018-12-17T05:43:00.617Z,86.54
2018-12-17T05:44:00.590Z,86.02
2018-12-17T05:45:00.584Z,88.02
2018-12-17T05:46:00.572Z,88.44
2018-12-17T05:47:00.557Z,88.12
2018-12-17T05:48:00.605Z,88.12
2018-12-17T05:49:00.549Z,88.54
2018-12-17T05:50:00.593Z,87.18
2018-12-17T05:51:00.525Z,85.38
2018-12-17T05:52:00.519Z,86.16
2018-12-17T05:53:00.549Z,86.02
2018-12-17T05:54:00.521Z,86.02
2018-12-17T05:55:00.478Z,87.07
2018-12-17T05:56:00.477Z,86.96
2018-12-17T05:57:00.454Z,86.02
2018-12-17T05:58:00.491Z,85.07
2018-12-17T05:59:00.434Z,84.50
2018-12-17T06:00:00.423Z,84.96
2018-12-17T06:01:00.412Z,84.54
2018-12-17T06:02:00.427Z,85.60
2018-12-17T06:03:00.430Z,85.55
2018-12-17T06:04:00.423Z,85.97
2018-12-17T06:05:00.385Z,85.35
2018-12-17T06:06:00.370Z,84.71
2018-12-17T06:07:00.351Z,85.80
2018-12-17T06:08:00.392Z,86.93
2018-12-17T06:09:00.340Z,87.13
2018-12-17T06:10:00.321Z,86.65
2018-12-17T06:11:00.305Z,87.28
2018-12-17T06:12:00.291Z,87.03
2018-12-17T06:13:00.344Z,87.18
2018-12-17T06:14:00.321Z,87.70
2018-12-17T06:15:00.263Z,87.55
2018-12-17T06:16:00.254Z,87.55
2018-12-17T06:17:00.243Z,87.91
2018-12-17T06:18:00.231Z,87.81
2018-12-17T06:19:00.282Z,86.96
2018-12-17T06:20:00.221Z,85.38
2018-12-17T06:21:00.215Z,85.91
2018-12-17T06:22:00.183Z,86.12
2018-12-17T06:23:00.178Z,85.91
2018-12-17T06:24:00.168Z,85.80
2018-12-17T06:25:00.211Z,86.54
2018-12-17T06:26:00.168Z,86.02
2018-12-17T06:27:00.135Z,86.44
2018-12-17T06:28:00.131Z,86.27
2018-12-17T06:29:00.112Z,86.33
2018-12-17T06:30:00.109Z,86.05
2018-12-17T06:31:00.143Z,86.69
2018-12-17T06:32:00.098Z,86.79
2018-12-17T06:33:00.077Z,86.47
2018-12-17T06:34:00.063Z,86.37
2018-12-17T06:35:00.047Z,86.05
2018-12-17T06:36:00.052Z,86.58
2018-12-17T06:37:00.063Z,87.32
2018-12-17T06:38:00.079Z,86.79
2018-12-17T06:39:00.005Z,86.90
2018-12-17T06:40:00.000Z,87.00
2018-12-17T06:40:59.984Z,87.32
2018-12-17T06:41:59.999Z,87.63
2018-12-17T06:42:59.984Z,87.85
2018-12-17T06:43:59.997Z,87.63
2018-12-17T06:44:59.951Z,88.06
2018-12-17T06:45:59.934Z,87.32
2018-12-17T06:46:59.925Z,87.32
2018-12-17T06:47:59.932Z,87.32
2018-12-17T06:48:59.942Z,87.95
2018-12-17T06:49:59.900Z,87.74
2018-12-17T06:50:59.902Z,87.32
2018-12-17T06:51:59.877Z,87.21
2018-12-17T06:52:59.862Z,87.11
2018-12-17T06:53:59.888Z,86.69
2018-12-17T06:54:59.870Z,87.11
2018-12-17T06:55:59.839Z,87.32
2018-12-17T06:56:59.820Z,87.95
2018-12-17T06:57:59.807Z,87.95
2018-12-17T06:58:59.829Z,87.74
2018-12-17T06:59:59.836Z,87.70
2018-12-17T07:00:59.811Z,87.49
2018-12-17T07:01:59.782Z,87.32
2018-12-17T07:02:59.763Z,87.95
2018-12-17T07:03:59.755Z,88.12
2018-12-17T07:04:59.740Z,87.74
2018-12-17T07:05:59.776Z,88.86
2018-12-17T07:06:59.725Z,88.33
2018-12-17T07:07:59.703Z,89.00
2018-12-17T07:08:59.686Z,88.69
2018-12-17T07:09:59.700Z,88.75
2018-12-17T07:10:59.702Z,88.18
2018-12-17T07:11:59.699Z,88.33
2018-12-17T07:12:59.654Z,88.50
2018-12-17T07:14:00.234Z,88.18
2018-12-17T07:14:59.633Z,87.55
2018-12-17T07:15:59.684Z,87.24
2018-12-17T07:16:59.616Z,87.13
2018-12-17T07:17:59.609Z,87.13
2018-12-17T07:18:59.592Z,87.98
2018-12-17T07:19:59.573Z,88.60
2018-12-17T07:20:59.571Z,87.66
2018-12-17T07:21:59.601Z,87.13
2018-12-17T07:22:59.546Z,87.35
2018-12-17T07:23:59.550Z,87.52
2018-12-17T07:24:59.531Z,87.62
2018-12-17T07:25:59.517Z,87.20
2018-12-17T07:26:59.502Z,87.20
2018-12-17T07:27:59.544Z,87.98
2018-12-17T07:28:59.482Z,87.83
2018-12-17T07:29:59.479Z,86.15
2018-12-17T07:30:59.486Z,84.67
2018-12-17T07:31:59.475Z,85.31
2018-12-17T07:32:59.452Z,85.94
2018-12-17T07:33:59.474Z,85.62
2018-12-17T07:34:59.442Z,85.41
2018-12-17T07:35:59.400Z,85.31
2018-12-17T07:36:59.450Z,85.35
2018-12-17T07:37:59.412Z,85.83
2018-12-17T07:38:59.376Z,85.55
2018-12-17T07:39:59.380Z,85.35
2018-12-17T07:40:59.371Z,85.03
2018-12-17T07:41:59.383Z,84.47
2018-12-17T07:42:59.373Z,84.78
2018-12-17T07:43:59.317Z,84.78
2018-12-17T07:44:59.321Z,84.89
2018-12-17T07:45:59.350Z,84.99
2018-12-17T07:46:59.296Z,85.31
2018-12-17T07:47:59.293Z,85.10
2018-12-17T07:48:59.302Z,84.47
2018-12-17T07:49:59.261Z,84.47
2018-12-17T07:50:59.262Z,85.06
2018-12-17T07:51:59.291Z,84.57
2018-12-17T07:52:59.243Z,85.06
2018-12-17T07:53:59.226Z,84.74
2018-12-17T07:54:59.217Z,84.57
2018-12-17T07:55:59.211Z,85.10
2018-12-17T07:56:59.192Z,85.62
2018-12-17T07:57:59.243Z,84.82
2018-12-17T07:58:59.230Z,85.73
2018-12-17T07:59:59.159Z,85.10
2018-12-17T08:00:59.146Z,85.94
2018-12-17T08:01:59.196Z,85.20
2018-12-17T08:02:59.137Z,85.97
2018-12-17T08:03:59.127Z,86.29
2018-12-17T08:04:59.159Z,86.93
2018-12-17T08:05:59.101Z,86.57
2018-12-17T08:06:59.095Z,85.73
2018-12-17T08:07:59.093Z,85.41
2018-12-17T08:08:59.063Z,85.41
2018-12-17T08:09:59.054Z,84.47
2018-12-17T08:10:59.086Z,85.41
2018-12-17T08:11:59.050Z,85.94
2018-12-17T08:12:59.021Z,86.08
2018-12-17T08:13:59.016Z,85.31
2018-12-17T08:14:59.009Z,85.20
2018-12-17T08:15:59.013Z,84.95
2018-12-17T08:16:59.020Z,84.84
2018-12-17T08:17:59.010Z,84.91
2018-12-17T08:18:58.971Z,84.39
2018-12-17T08:19:58.953Z,84.28
2018-12-17T08:20:58.947Z,83.34
2018-12-17T08:21:58.931Z,83.17
2018-12-17T08:22:58.933Z,83.80
2018-12-17T08:23:58.950Z,83.86
2018-12-17T08:24:58.927Z,82.71
2018-12-17T08:25:58.902Z,82.56
2018-12-17T08:26:58.881Z,81.51
2018-12-17T08:27:58.888Z,81.90
2018-12-17T08:28:58.908Z,81.51
2018-12-17T08:30:03.836Z,80.85
2018-12-17T08:30:59.835Z,81.58
2018-12-17T08:31:58.839Z,81.05
2018-12-17T08:32:58.815Z,80.71
2018-12-17T08:33:58.832Z,80.25
2018-12-17T08:34:58.846Z,79.97
2018-12-17T08:35:58.794Z,80.15
2018-12-17T08:36:58.775Z,80.35
2018-12-17T08:37:58.775Z,79.48
2018-12-17T08:38:58.766Z,78.11
2018-12-17T08:39:58.745Z,78.53
2018-12-17T08:40:58.789Z,78.99
2018-12-17T08:41:58.754Z,79.16
2018-12-17T08:42:58.712Z,79.38
2018-12-17T08:43:58.709Z,78.96
2018-12-17T08:44:58.710Z,78.43
2018-12-17T08:45:58.701Z,78.96
2018-12-17T08:46:58.704Z,79.10
2018-12-17T08:47:58.663Z,79.34
2018-12-17T08:48:58.661Z,80.18
2018-12-17T08:49:58.703Z,79.76
2018-12-17T08:50:58.629Z,79.24
2018-12-17T08:51:58.627Z,79.72
2018-12-17T08:52:58.623Z,78.99
2018-12-17T08:53:58.600Z,79.62
2018-12-17T08:54:58.594Z,79.62
2018-12-17T08:55:58.628Z,79.62
2018-12-17T08:56:58.565Z,79.72
2018-12-17T08:57:58.560Z,79.76
2018-12-17T08:58:58.557Z,80.08
2018-12-17T08:59:58.530Z,79.83
2018-12-17T09:00:58.541Z,79.93
2018-12-17T09:01:58.579Z,80.35
2018-12-17T09:02:58.522Z,79.72
2018-12-17T09:03:58.489Z,80.21
2018-12-17T09:04:58.488Z,80.04
2018-12-17T09:05:58.474Z,79.62
2018-12-17T09:06:58.481Z,80.60
2018-12-17T09:07:58.496Z,81.23
2018-12-17T09:08:58.448Z,81.76
2018-12-17T09:09:58.446Z,81.96
2018-12-17T09:10:58.442Z,81.93
2018-12-17T09:11:58.406Z,80.57
2018-12-17T09:12:58.443Z,80.21
2018-12-17T09:13:58.382Z,80.11
2018-12-17T09:14:58.384Z,78.92
2018-12-17T09:15:58.379Z,77.83
2018-12-17T09:16:58.382Z,77.00
2018-12-17T09:17:58.385Z,77.83
2018-12-17T09:18:58.320Z,77.73
2018-12-17T09:19:58.333Z,77.83
2018-12-17T09:20:58.335Z,78.25
2018-12-17T09:21:58.306Z,78.60
2018-12-17T09:22:58.401Z,78.88
2018-12-17T09:23:58.274Z,78.99
2018-12-17T09:24:58.298Z,78.36
2018-12-17T09:25:58.267Z,78.46
2018-12-17T09:26:58.247Z,78.15
2018-12-17T09:27:58.323Z,78.60
2018-12-17T09:28:58.230Z,77.24
2018-12-17T09:29:58.229Z,77.31
2018-12-17T09:30:58.225Z,77.34
2018-12-17T09:31:58.205Z,78.81
2018-12-17T09:32:58.188Z,79.44
2018-12-17T09:33:58.221Z,79.13
2018-12-17T09:34:58.154Z,79.02
2018-12-17T09:35:58.149Z,79.34
2018-12-17T09:36:58.133Z,79.20
2018-12-17T09:37:58.140Z,78.46
2018-12-17T09:38:58.117Z,78.99
2018-12-17T09:39:58.191Z,78.46
2018-12-17T09:40:58.097Z,78.36
2018-12-17T09:41:58.108Z,77.69
2018-12-17T09:42:58.096Z,77.17
2018-12-17T09:43:58.064Z,77.28
2018-12-17T09:44:59.148Z,76.23
2018-12-17T09:45:58.034Z,76.65
2018-12-17T09:46:58.036Z,76.26
2018-12-17T09:47:58.032Z,76.89
2018-12-17T09:48:58.037Z,77.31
2018-12-17T09:49:58.000Z,77.31
2018-12-17T09:50:58.062Z,78.36
2018-12-17T09:51:57.989Z,78.05
2018-12-17T09:52:57.957Z,78.57
2018-12-17T09:53:57.974Z,78.57
2018-12-17T09:54:57.943Z,79.51
2018-12-17T09:55:57.939Z,79.30
2018-12-17T09:56:57.957Z,80.18
2018-12-17T09:57:58.121Z,80.07
2018-12-17T09:58:58.119Z,80.18
2018-12-17T09:59:57.911Z,80.56
2018-12-17T10:00:57.866Z,80.66
2018-12-17T10:01:57.869Z,80.63
2018-12-17T10:02:57.899Z,79.90
2018-12-17T10:03:57.859Z,77.76
2018-12-17T10:04:57.852Z,76.40
2018-12-17T10:05:57.856Z,75.18
2018-12-17T10:06:57.818Z,75.98
2018-12-17T10:07:57.813Z,76.12
2018-12-17T10:08:57.860Z,76.96
2018-12-17T10:09:57.774Z,76.93
2018-12-17T10:10:57.794Z,76.30
2018-12-17T10:11:57.767Z,76.30
2018-12-17T10:12:57.779Z,76.40
2018-12-17T10:13:57.748Z,76.09
2018-12-17T10:14:57.798Z,77.38
2018-12-17T10:15:57.728Z,79.09
2018-12-17T10:16:57.715Z,80.24
2018-12-17T10:17:57.711Z,80.60
2018-12-17T10:18:57.673Z,80.87
2018-12-17T10:19:57.726Z,80.98
2018-12-17T10:20:57.678Z,81.01
2018-12-17T10:21:57.645Z,81.43
2018-12-17T10:22:57.632Z,81.23
2018-12-17T10:23:57.662Z,81.85
2018-12-17T10:24:57.627Z,81.26
2018-12-17T10:25:57.642Z,80.38
2018-12-17T10:26:57.608Z,79.09
2018-12-17T10:27:57.616Z,78.60
2018-12-17T10:28:57.605Z,78.15
2018-12-17T10:29:57.630Z,78.36
2018-12-17T10:30:57.608Z,78.67
2018-12-17T10:31:57.567Z,76.79
2018-12-17T10:32:57.535Z,76.75
2018-12-17T10:33:57.533Z,76.79
2018-12-17T10:34:57.549Z,77.31
2018-12-17T10:35:57.545Z,76.68
2018-12-17T10:36:57.529Z,76.89
2018-12-17T10:37:57.473Z,76.86
2018-12-17T10:38:57.476Z,75.36
2018-12-17T10:39:57.494Z,75.92
2018-12-17T10:40:57.449Z,72.92
2018-12-17T10:41:57.502Z,72.02
2018-12-17T10:42:57.567Z,72.13
2018-12-17T10:43:57.410Z,72.99
2018-12-17T10:44:57.435Z,72.75
2018-12-17T10:45:57.454Z,73.17
2018-12-17T10:46:57.956Z,72.68
2018-12-17T10:47:57.399Z,72.44
2018-12-17T10:48:57.382Z,71.19
2018-12-17T10:49:57.379Z,70.36
2018-12-17T10:50:57.348Z,71.64
2018-12-17T10:51:57.413Z,74.35
2018-12-17T10:52:57.337Z,74.66
2018-12-17T10:53:57.328Z,75.88
2018-12-17T10:54:57.311Z,74.84
2018-12-17T10:55:57.322Z,74.80
2018-12-17T10:56:57.320Z,73.24
2018-12-17T10:57:57.345Z,70.30
2018-12-17T10:58:57.292Z,67.19
2018-12-17T10:59:57.282Z,67.12
2018-12-17T11:00:57.262Z,65.77
2018-12-17T11:01:57.232Z,65.91
2018-12-17T11:02:57.390Z,64.23
2018-12-17T11:03:57.253Z,63.73
2018-12-17T11:04:57.244Z,65.22
2018-12-17T11:05:57.193Z,66.50
2018-12-17T11:06:57.191Z,66.08
2018-12-17T11:07:57.218Z,67.25
2018-12-17T11:08:57.170Z,68.88
2018-12-17T11:09:57.169Z,70.05
2018-12-17T11:10:57.151Z,70.40
2018-12-17T11:11:57.149Z,70.15
2018-12-17T11:12:57.106Z,69.74
2018-12-17T11:13:57.172Z,69.84
2018-12-17T11:14:57.108Z,70.02
2018-12-17T11:15:57.885Z,68.66
2018-12-17T11:16:57.096Z,69.29
2018-12-17T11:17:57.099Z,69.37
2018-12-17T11:18:57.080Z,69.12
2018-12-17T11:19:57.083Z,70.43
2018-12-17T11:20:57.045Z,71.30
2018-12-17T11:21:57.025Z,72.16
2018-12-17T11:22:57.014Z,73.13
2018-12-17T11:23:57.155Z,74.98
2018-12-17T11:24:57.039Z,76.02
2018-12-17T11:25:57.001Z,76.12
2018-12-17T11:26:56.991Z,76.02
2018-12-17T11:27:56.964Z,75.92
2018-12-17T11:28:57.441Z,75.95
2018-12-17T11:29:56.956Z,76.12
2018-12-17T11:30:56.996Z,76.02
2018-12-17T11:31:56.935Z,75.15
2018-12-17T11:32:56.936Z,74.32
2018-12-17T11:33:56.899Z,74.52
2018-12-17T11:34:56.899Z,73.97
2018-12-17T11:35:56.883Z,74.18
2018-12-17T11:36:56.905Z,74.42
2018-12-17T11:37:56.842Z,74.63
2018-12-17T11:38:56.842Z,75.26
2018-12-17T11:39:56.819Z,75.29
2018-12-17T11:40:56.803Z,76.23
2018-12-17T11:41:57.067Z,75.60
2018-12-17T11:42:56.786Z,76.89
2018-12-17T11:43:56.811Z,77.24
2018-12-17T11:44:56.789Z,76.89
2018-12-17T11:45:56.775Z,77.10
2018-12-17T11:46:56.792Z,77.31
2018-12-17T11:47:56.798Z,76.68
2018-12-17T11:48:56.736Z,77.14
2018-12-17T11:49:57.611Z,77.62
2018-12-17T11:50:56.719Z,78.25
2018-12-17T11:51:56.708Z,78.49
2018-12-17T11:52:56.689Z,77.87
2018-12-17T11:53:56.730Z,78.14
2018-12-17T11:54:56.664Z,78.49
2018-12-17T11:55:57.428Z,79.02
2018-12-17T11:57:22.135Z,79.02
2018-12-17T11:57:57.639Z,79.64
2018-12-17T11:58:56.608Z,79.12
2018-12-17T11:59:56.658Z,78.98
2018-12-17T12:00:56.642Z,79.02
2018-12-17T12:01:56.593Z,78.81
2018-12-17T12:02:59.187Z,79.22
2018-12-17T12:03:56.564Z,79.64
2018-12-17T12:04:56.573Z,79.68
2018-12-17T12:05:56.577Z,79.85
2018-12-17T12:06:56.541Z,80.10
2018-12-17T12:07:56.541Z,80.16
2018-12-17T12:08:56.510Z,79.33
2018-12-17T12:09:56.517Z,80.06
2018-12-17T12:10:56.515Z,79.85
2018-12-17T12:11:56.522Z,79.64
2018-12-17T12:12:56.481Z,79.85
2018-12-17T12:13:56.459Z,79.96
2018-12-17T12:14:56.452Z,80.27
2018-12-17T12:15:56.445Z,80.93
2018-12-17T12:16:56.492Z,81.56
2018-12-17T12:17:56.419Z,81.52
2018-12-17T12:18:56.424Z,81.42
2018-12-17T12:19:56.414Z,80.79
2018-12-17T12:20:56.385Z,81.18
2018-12-17T12:21:56.389Z,82.54
2018-12-17T12:22:56.468Z,82.96
2018-12-17T12:23:56.403Z,82.96
2018-12-17T12:24:56.348Z,82.75
2018-12-17T12:25:56.543Z,82.92
2018-12-17T12:26:56.326Z,82.05
2018-12-17T12:27:56.293Z,81.32
2018-12-17T12:28:56.530Z,80.20
2018-12-17T12:29:56.276Z,81.67
2018-12-17T12:31:00.486Z,81.56
2018-12-17T12:31:56.517Z,80.93
2018-12-17T12:32:56.285Z,80.83
2018-12-17T12:33:56.254Z,80.83
2018-12-17T12:34:56.291Z,81.35
2018-12-17T12:35:56.290Z,80.62
2018-12-17T12:36:56.466Z,79.96
2018-12-17T12:37:56.194Z,79.64
2018-12-17T12:38:56.203Z,76.16
2018-12-17T12:39:56.216Z,73.14
2018-12-17T12:40:56.176Z,71.55
2018-12-17T12:41:56.251Z,70.51
2018-12-17T12:42:56.155Z,70.54
2018-12-17T12:43:56.925Z,71.79
2018-12-17T12:44:56.133Z,72.48
2018-12-17T12:45:56.144Z,73.28
2018-12-17T12:46:56.106Z,72.45
2018-12-17T12:47:56.092Z,72.52
2018-12-17T12:48:56.086Z,71.75
2018-12-17T12:49:56.188Z,69.54
2018-12-17T12:50:56.257Z,70.61
2018-12-17T12:51:56.970Z,69.78